Flight Track Log - Related Links

Times and Time Zones

All times are in EDT time to prevent confusion due to time zone crossing. See the N400PU flight status page for this flight to view local times or setup timezone preferences in your user account.

Time Position Orientation Groundspeed Altitude Reporting Facility
EDT Latitude Longitude Course Direction KTS MPH feet Rate Location/Type
Sat 11:12:41 AM 40.4094 -86.9169 277° West 166 191 1,700  Level Chicago Center
Sat 11:13:29 AM 40.4075 -86.8622 93° East 186 214 3,500 2,304 Climbing Chicago Center
Sat 11:14:33 AM 40.3761 -86.8092 128° Southeast 214 246 6,000 2,592 Climbing Chicago Center
Sat 11:15:34 AM 40.3517 -86.8772 245° Southwest 218 251 8,900 2,852 Climbing Chicago Center
Sat 11:16:35 AM 40.3567 -86.9589 275° West 223 257 11,800 2,537 Climbing Chicago Center
Sat 11:17:37 AM 40.3617 -87.0456 274° West 235 270 14,100 2,146 Climbing Chicago Center
Sat 11:18:00 AM 40.4133 -86.9483 277° West  Level Estimated
Sat 11:18:38 AM 40.3675 -87.1503 274° West 281 323 16,200  Level Chicago Center
Sat 11:19:40 AM 40.3742 -87.2608 275° West 301 346 18,500 2,195 Climbing Chicago Center
Sat 11:20:41 AM 40.3817 -87.3725 275° West 306 352 20,700 1,659 Climbing Chicago Center
Sat 11:21:43 AM 40.3892 -87.5064 274° West 330 380 21,900 1,122 Climbing Chicago Center
Sat 11:22:44 AM 40.3981 -87.6350 275° West 348 400 23,000 541 Climbing Chicago Center
Sat 11:23:45 AM 40.4072 -87.7767 275° West 378 435 23,000 98 Level Chicago Center
Sat 11:24:47 AM 40.4150 -87.9239 274° West 399 459 23,200 1,366 Climbing Chicago Center
Sat 11:25:48 AM 40.4225 -88.0611 274° West 385 443 25,800 1,366 Climbing Chicago Center
Sat 11:26:50 AM 40.4303 -88.1936 274° West 368 423 26,000 102 Climbing Chicago Center
Sat 11:28:44 AM 40.4447 -88.4872 274° West 405 466 26,100 775 Climbing Kansas City Center
Sat 11:29:48 AM 40.4522 -88.6272 274° West 389 448 28,300 1,984 Climbing Kansas City Center
Sat 11:30:48 AM 40.4589 -88.7578 274° West 364 419 30,200 1,814 Climbing Kansas City Center
Sat 11:31:57 AM 40.4675 -88.9117 274° West 353 406 32,200 1,569 Climbing Chicago Center
Sat 11:32:58 AM 40.4731 -89.0378 273° West 347 399 33,600 1,317 Climbing Chicago Center
Sat 11:34:00 AM 40.4789 -89.1656 273° West 350 403 34,900 1,268 Climbing Chicago Center
Sat 11:35:01 AM 40.4833 -89.2917 273° West 346 398 36,200 1,171 Climbing Chicago Center
Sat 11:36:03 AM 40.4900 -89.4197 274° West 349 402 37,300 878 Climbing Chicago Center
Sat 11:37:04 AM 40.4969 -89.5644 274° West 343 395 38,000 341 Climbing Chicago Center
Sat 11:38:06 AM 40.5017 -89.6983 273° West 362 417 38,000  Level Chicago Center
Sat 11:39:07 AM 40.5075 -89.8356 273° West 373 429 38,000  Level Chicago Center
Sat 11:40:08 AM 40.5133 -89.9669 273° West 367 422 38,000  Level Chicago Center
Sat 11:41:10 AM 40.5175 -90.0975 272° West 361 415 38,000  Level Chicago Center
Sat 11:42:11 AM 40.5231 -90.2456 273° West 361 415 38,000  Level Chicago Center
Sat 11:43:13 AM 40.5278 -90.3819 273° West 370 426 38,000  Level Chicago Center
Sat 11:44:14 AM 40.5328 -90.5189 273° West 375 432 38,000  Level Chicago Center
Sat 11:44:39 AM 40.5347 -90.5728 273° West 374 430 38,000  Level Chicago Center
Sat 11:45:41 AM 40.5381 -90.7100 272° West 376 433 38,000  Level Chicago Center
Sat 11:46:42 AM 40.5436 -90.8456 273° West 372 428 38,000  Level Chicago Center
Sat 11:47:44 AM 40.5467 -90.9806 272° West 370 426 38,000  Level Chicago Center
Sat 11:48:46 AM 40.5508 -91.1161 272° West 371 427 38,000  Level Chicago Center
Sat 11:49:47 AM 40.5550 -91.2519 272° West 371 427 38,000  Level Chicago Center
Sat 11:50:49 AM 40.5589 -91.4136 272° West 371 427 38,000  Level Chicago Center
Sat 11:51:50 AM 40.5625 -91.5483 272° West 373 429 38,000  Level Chicago Center
Sat 11:52:28 AM 40.5639 -91.6281 271° West 371 427 38,000  Level Kansas City Center
Sat 11:53:32 AM 40.5669 -91.7622 272° West 370 426 38,000  Level Kansas City Center
Sat 11:54:32 AM 40.5697 -91.8975 272° West 372 428 38,000  Level Kansas City Center
Sat 11:55:36 AM 40.5742 -92.0572 272° West 370 426 38,000  Level Kansas City Center
Sat 11:56:37 AM 40.5750 -92.1914 271° West 371 427 38,000  Level Kansas City Center
Sat 11:57:38 AM 40.5783 -92.3350 272° West 370 426 38,000 -242 Level Kansas City Center
Sat 11:58:41 AM 40.5817 -92.4703 272° West 370 426 37,500 -968 Descending Kansas City Center
Sat 11:59:42 AM 40.5836 -92.6072 271° West 372 428 36,000 -1,403 Descending Kansas City Center
Sat 12:00:45 PM 40.5861 -92.7403 271° West 370 426 34,600 -882 Descending Kansas City Center
Sat 12:01:58 PM 40.5881 -92.9153 271° West 374 430 34,000 -261 Descending Kansas City Center
Sat 12:03:03 PM 40.5897 -93.0517 271° West 383 441 34,000  Level Kansas City Center
Sat 12:04:03 PM 40.5925 -93.1942 272° West 391 450 34,000  Level Kansas City Center
Sat 12:05:06 PM 40.5939 -93.3694 271° West 400 460 34,000  Level Kansas City Center
Sat 12:05:53 PM 40.5928 -93.4872 269° West 406 467 34,000  Level Minneapolis Center
Sat 12:06:55 PM 40.5936 -93.6353 270° West 410 472 34,000  Level Minneapolis Center
Sat 12:07:56 PM 40.5939 -93.7803 270° West 403 464 34,000  Level Minneapolis Center
Sat 12:08:57 PM 40.5953 -93.9231 271° West 396 456 34,000  Level Minneapolis Center
Sat 12:09:59 PM 40.6025 -94.0642 274° West 393 452 34,000  Level Minneapolis Center
Sat 12:11:00 PM 40.6217 -94.2394 278° West 402 463 34,000 -246 Level Minneapolis Center
Sat 12:12:01 PM 40.6356 -94.3864 277° West 405 466 33,500 -1,122 Descending Minneapolis Center
Sat 12:13:03 PM 40.6517 -94.5319 278° West 405 466 31,700 -1,512 Descending Minneapolis Center
Sat 12:14:04 PM 40.6650 -94.6700 277° West 396 456 30,400 -1,366 Descending Minneapolis Center
Sat 12:15:06 PM 40.6792 -94.8092 278° West 386 444 28,900 -1,463 Descending Minneapolis Center
Sat 12:16:07 PM 40.6956 -94.9514 279° West 388 447 27,400 -1,613 Descending Minneapolis Center
Sat 12:16:39 PM 40.7142 -95.0425 285° West 404 465 26,400 -1,676 Descending Minneapolis Center
Sat 12:17:15 PM 40.7211 -95.1353 276° West 406 467 25,500 -1,648 Descending Minneapolis Center
Sat 12:18:10 PM 40.7236 -95.2800 271° West 407 468 23,900 -1,862 Descending Minneapolis Center
Sat 12:19:11 PM 40.7361 -95.4250 277° West 403 464 21,900 -2,030 Descending Minneapolis Center
Sat 12:20:23 PM 40.7575 -95.5878 280° West 384 442 19,400 -2,146 Descending Minneapolis Center
Sat 12:21:14 PM 40.7611 -95.6972 273° West 366 421 17,500 -2,149 Descending Minneapolis Center
Sat 12:21:30 PM 40.7669 -95.7269 285° West 351 404 17,000 -1,869 Descending Minneapolis Center
Sat 12:22:15 PM 40.7733 -95.8247 275° West 353 406 15,600 -2,100 Descending Minneapolis Center
Sat 12:22:30 PM 40.7758 -95.8553 276° West 343 395 14,900 -2,571 Descending Minneapolis Center
Sat 12:23:25 PM 40.7853 -95.9672 276° West 339 390 12,600 -2,333 Descending Minneapolis Center
Sat 12:24:18 PM 40.7939 -96.0728 276° West 342 394 10,700 -1,878 Descending Minneapolis Center
Sat 12:25:20 PM 40.8019 -96.1786 276° West 304 350 9,000 -1,805 Descending Minneapolis Center
Sat 12:26:21 PM 40.8028 -96.2717 271° West 276 318 7,000 -1,951 Descending Minneapolis Center
Sat 12:27:23 PM 40.7908 -96.3575 260° West 254 292 5,000 -1,463 Descending Minneapolis Center
Sat 12:28:24 PM 40.7781 -96.4436 259° West 244 281 4,000 -984 Descending Minneapolis Center
Sat 12:29:25 PM 40.7650 -96.5250 258° West 214 246 3,000 -528 Descending Minneapolis Center
Sat 12:30:29 PM 40.7469 -96.5875 249° West 193 222 2,900  Descending Minneapolis Center
Sat 12:31:30 PM 40.7403 -96.6461 261° West 137 158 3,000 -99 Climbing Minneapolis Center
Sat 12:32:30 PM 40.7653 -96.6792 315° West 124 143 2,700 -397 Descending Minneapolis Center
Sat 12:33:31 PM 40.7939 -96.7064 324° Northwest 127 146 2,200 -496 Descending Minneapolis Center
Sat 12:34:31 PM 40.8183 -96.7286 325° Northwest 110 127 1,700 -500 Descending Minneapolis Center

Login

Don't have an account? Register now (free) for customized features, flight alerts, and more!